Time;durP1;ratioP1;P1;durP2;ratioP2;P2;SDS_P1;SDS_P2;PMS_P1;PMS_P2;Temp;Humidity;BMP_temperature;BMP_pressure;BME280_temperature;BME280_humidity;BME280_pressure;Samples;Min_cycle;Max_cycle;Signal;HPM_P1;HPM_P2
2021/11/08 00:00:52;;;;;;;10.30;5.70;;;;;;;;;;10371832;28;20467;-83
2021/11/08 00:05:53;;;;;;;10.55;5.97;;;;;;;;;;10370168;28;20044;-83
2021/11/08 00:10:53;;;;;;;10.00;5.88;;;;;;;;;;10370728;28;20030;-83
2021/11/08 00:21:00;;;;;;;13.20;6.00;;;;;;;;;;10368589;28;20034;-83
2021/11/08 00:26:02;;;;;;;10.90;5.13;;;;;;;;;;10422899;23;20041;-84
2021/11/08 00:31:03;;;;;;;11.10;6.15;;;;;;;;;;10355678;28;20064;-81
2021/11/08 00:36:04;;;;;;;9.70;5.97;;;;;;;;;;10379692;28;20456;-80
2021/11/08 00:41:04;;;;;;;10.63;5.40;;;;;;;;;;10367197;28;20030;-80
2021/11/08 00:46:06;;;;;;;9.57;5.80;;;;;;;;;;10380468;28;20029;-81
2021/11/08 00:51:06;;;;;;;11.27;5.35;;;;;;;;;;10379971;28;20463;-80
2021/11/08 00:56:11;;;;;;;6.93;4.78;;;;;;;;;;10379156;28;20121;-81
2021/11/08 01:01:18;;;;;;;8.40;5.63;;;;;;;;;;10377718;28;20038;-81
2021/11/08 01:06:20;;;;;;;7.40;5.25;;;;;;;;;;10378827;28;20041;-82
2021/11/08 01:11:20;;;;;;;8.27;5.28;;;;;;;;;;10378982;28;20026;-82
2021/11/08 01:16:24;;;;;;;8.15;5.13;;;;;;;;;;10378523;28;20037;-83
2021/11/08 01:21:25;;;;;;;10.52;5.13;;;;;;;;;;10378801;28;20037;-83
2021/11/08 01:26:27;;;;;;;10.60;5.85;;;;;;;;;;10377005;28;20556;-82
2021/11/08 01:31:27;;;;;;;7.88;4.93;;;;;;;;;;10378184;28;20034;-83
2021/11/08 01:36:34;;;;;;;8.27;4.82;;;;;;;;;;10378091;28;20108;-82
2021/11/08 01:41:35;;;;;;;8.40;5.32;;;;;;;;;;10366994;28;20030;-82
2021/11/08 01:46:36;;;;;;;11.98;5.22;;;;;;;;;;10359659;28;20486;-82
2021/11/08 01:51:36;;;;;;;10.70;5.32;;;;;;;;;;10376376;28;20044;-83
2021/11/08 01:56:36;;;;;;;8.95;4.95;;;;;;;;;;10377150;28;20018;-82
2021/11/08 02:01:37;;;;;;;9.10;4.83;;;;;;;;;;10369358;28;20026;-82
2021/11/08 02:06:38;;;;;;;9.98;4.75;;;;;;;;;;10370076;28;20444;-82
2021/11/08 02:11:39;;;;;;;7.53;4.80;;;;;;;;;;10375909;28;20058;-83
2021/11/08 02:16:40;;;;;;;8.63;4.88;;;;;;;;;;10369866;28;20442;-83
2021/11/08 02:21:40;;;;;;;9.82;5.20;;;;;;;;;;10365132;28;20034;-82
2021/11/08 02:26:42;;;;;;;7.67;4.87;;;;;;;;;;10375318;28;20062;-82
2021/11/08 02:31:43;;;;;;;6.25;4.80;;;;;;;;;;10375560;28;20450;-82
2021/11/08 02:36:44;;;;;;;7.15;4.90;;;;;;;;;;10376630;28;20056;-82
2021/11/08 02:41:44;;;;;;;12.80;4.70;;;;;;;;;;10375070;28;20037;-84
2021/11/08 02:47:05;;;;;;;8.52;4.70;;;;;;;;;;10375608;28;20029;-84
2021/11/08 02:52:09;;;;;;;7.68;4.07;;;;;;;;;;10358592;28;20476;-81
2021/11/08 02:57:09;;;;;;;8.13;5.10;;;;;;;;;;10374551;28;20033;-81
2021/11/08 03:02:10;;;;;;;8.63;5.00;;;;;;;;;;10374020;28;20056;-81
2021/11/08 03:07:11;;;;;;;8.75;4.97;;;;;;;;;;10398873;28;20542;-80
2021/11/08 03:12:17;;;;;;;6.32;4.60;;;;;;;;;;10378897;28;20088;-82
2021/11/08 03:17:20;;;;;;;5.63;4.20;;;;;;;;;;10385076;28;20033;-81
2021/11/08 03:22:26;;;;;;;6.40;4.70;;;;;;;;;;10372324;28;20120;-82
2021/11/08 03:32:49;;;;;;;10.02;4.20;;;;;;;;;;10373783;28;20038;-82
2021/11/08 03:37:51;;;;;;;4.85;3.97;;;;;;;;;;10373375;28;20108;-82
2021/11/08 03:42:55;;;;;;;7.03;4.47;;;;;;;;;;10359481;28;20038;-83
2021/11/08 03:47:57;;;;;;;9.90;4.30;;;;;;;;;;10371662;28;20042;-85
2021/11/08 03:52:57;;;;;;;7.40;4.35;;;;;;;;;;10385253;28;20038;-85
2021/11/08 03:57:58;;;;;;;5.90;4.30;;;;;;;;;;10388336;28;20112;-85
2021/11/08 04:02:59;;;;;;;6.95;4.07;;;;;;;;;;10385980;28;20474;-86
2021/11/08 04:08:03;;;;;;;9.20;4.43;;;;;;;;;;10377439;28;20044;-85
2021/11/08 04:13:04;;;;;;;7.40;4.50;;;;;;;;;;10380363;28;20499;-85
2021/11/08 04:18:08;;;;;;;5.85;4.13;;;;;;;;;;10380436;28;20030;-85
2021/11/08 04:23:10;;;;;;;5.78;4.20;;;;;;;;;;10379337;28;20040;-85
2021/11/08 04:28:11;;;;;;;9.27;4.97;;;;;;;;;;10381521;28;20048;-85
2021/11/08 04:33:32;;;;;;;6.70;4.10;;;;;;;;;;10379562;28;20478;-82
2021/11/08 04:38:52;;;;;;;5.00;3.40;;;;;;;;;;10381141;28;20033;-82
2021/11/08 04:54:49;;;;;;;8.05;4.20;;;;;;;;;;10356675;28;20507;-82
2021/11/08 05:31:34;;;;;;;;;;;;;;;;;;10377748;28;20033;-82
2021/11/08 05:36:35;;;;;;;6.53;3.88;;;;;;;;;;10375160;28;20332;-82
2021/11/08 05:41:38;;;;;;;4.63;3.50;;;;;;;;;;10377251;28;20026;-82
2021/11/08 05:46:39;;;;;;;6.00;3.80;;;;;;;;;;10376649;28;20026;-83
2021/11/08 05:51:40;;;;;;;6.00;4.20;;;;;;;;;;10393096;28;20029;-82
2021/11/08 05:57:03;;;;;;;5.63;3.53;;;;;;;;;;10380496;28;20038;-82
2021/11/08 06:49:30;;;;;;;7.20;3.55;;;;;;;;;;10380773;28;20026;-83
2021/11/08 06:54:31;;;;;;;5.03;3.90;;;;;;;;;;10386234;28;20021;-95
2021/11/08 06:59:31;;;;;;;5.32;3.58;;;;;;;;;;10391098;28;20038;-96
2021/11/08 07:04:32;;;;;;;6.07;3.83;;;;;;;;;;10378102;28;20044;-94
2021/11/08 07:09:33;;;;;;;6.55;4.03;;;;;;;;;;10371877;28;20037;-95
2021/11/08 07:14:33;;;;;;;5.75;3.80;;;;;;;;;;10359761;28;20027;-88
2021/11/08 07:19:34;;;;;;;5.10;3.33;;;;;;;;;;10369024;28;20392;-86
2021/11/08 07:24:34;;;;;;;4.88;3.35;;;;;;;;;;10366287;28;20395;-89
2021/11/08 07:29:37;;;;;;;4.25;3.28;;;;;;;;;;10387075;28;20519;-88
2021/11/08 07:34:37;;;;;;;4.43;3.22;;;;;;;;;;10373044;28;20038;-88
2021/11/08 07:39:38;;;;;;;7.33;3.53;;;;;;;;;;10372572;28;20037;-84
2021/11/08 07:44:38;;;;;;;16.77;3.97;;;;;;;;;;10372845;28;20455;-88
2021/11/08 07:49:39;;;;;;;13.13;5.07;;;;;;;;;;10373199;28;20523;-86
2021/11/08 07:54:41;;;;;;;14.35;5.13;;;;;;;;;;10372351;28;20137;-89
2021/11/08 07:59:41;;;;;;;24.13;4.95;;;;;;;;;;10377114;28;20128;-88
2021/11/08 08:04:42;;;;;;;7.40;4.40;;;;;;;;;;10377382;28;20089;-88
2021/11/08 08:09:42;;;;;;;8.55;4.25;;;;;;;;;;10370212;28;20471;-86
2021/11/08 08:14:42;;;;;;;9.77;4.57;;;;;;;;;;10368101;28;20038;-88
2021/11/08 08:19:43;;;;;;;11.67;4.03;;;;;;;;;;10372770;28;20483;-88
2021/11/08 08:24:43;;;;;;;13.05;3.72;;;;;;;;;;10372790;28;20438;-88
2021/11/08 08:29:44;;;;;;;11.67;3.67;;;;;;;;;;10372719;28;20054;-88
2021/11/08 08:34:45;;;;;;;9.70;4.20;;;;;;;;;;10364256;28;20889;-87
2021/11/08 08:39:48;;;;;;;9.02;3.60;;;;;;;;;;10380897;28;20044;-88
2021/11/08 08:44:50;;;;;;;8.52;3.80;;;;;;;;;;10371381;28;20371;-88
2021/11/08 08:49:50;;;;;;;6.45;3.60;;;;;;;;;;10373153;28;20124;-86
2021/11/08 08:54:52;;;;;;;5.87;3.80;;;;;;;;;;10378316;28;20117;-88
2021/11/08 08:59:52;;;;;;;8.90;3.90;;;;;;;;;;10393593;28;20789;-88
2021/11/08 09:04:53;;;;;;;8.18;4.28;;;;;;;;;;10379815;28;20037;-88
2021/11/08 09:09:53;;;;;;;18.03;3.77;;;;;;;;;;10372301;28;20116;-87
2021/11/08 09:14:53;;;;;;;10.23;3.10;;;;;;;;;;10336547;28;20452;-87
2021/11/08 09:19:54;;;;;;;8.07;3.23;;;;;;;;;;10321184;28;20114;-88
2021/11/08 09:24:55;;;;;;;8.43;3.65;;;;;;;;;;10307632;28;20466;-87
2021/11/08 09:29:55;;;;;;;8.07;3.92;;;;;;;;;;10305996;28;20437;-87
2021/11/08 09:34:56;;;;;;;7.03;3.47;;;;;;;;;;10300230;28;20476;-87
2021/11/08 09:39:56;;;;;;;11.13;3.30;;;;;;;;;;10312081;28;20038;-86
2021/11/08 09:44:58;;;;;;;7.00;3.43;;;;;;;;;;10309309;28;20372;-87
2021/11/08 09:50:02;;;;;;;11.45;3.08;;;;;;;;;;10307935;28;20437;-85
2021/11/08 09:55:05;;;;;;;11.52;3.58;;;;;;;;;;10300948;28;20109;-83
2021/11/08 10:00:29;;;;;;;10.88;3.13;;;;;;;;;;10269784;28;20451;-86
2021/11/08 10:05:42;;;;;;;6.80;2.97;;;;;;;;;;10238039;28;20124;-86
2021/11/08 10:10:43;;;;;;;9.15;2.50;;;;;;;;;;10222858;28;20042;-83
2021/11/08 10:15:47;;;;;;;8.17;2.63;;;;;;;;;;10222518;28;20031;-81
2021/11/08 10:20:50;;;;;;;7.45;2.60;;;;;;;;;;10231802;28;20460;-80
2021/11/08 10:25:51;;;;;;;5.32;2.83;;;;;;;;;;10218647;28;20039;-83
2021/11/08 10:31:01;;;;;;;11.32;3.05;;;;;;;;;;10197323;28;20377;-86
2021/11/08 10:36:17;;;;;;;6.28;2.10;;;;;;;;;;10194445;28;20069;-86
2021/11/08 10:41:21;;;;;;;4.75;2.42;;;;;;;;;;10187066;28;20425;-86
2021/11/08 10:46:29;;;;;;;5.88;2.33;;;;;;;;;;10204494;28;20031;-83
2021/11/08 10:51:31;;;;;;;7.35;2.45;;;;;;;;;;10226309;28;20043;-86
2021/11/08 10:56:43;;;;;;;8.35;2.35;;;;;;;;;;10219304;28;20142;-85
2021/11/08 11:01:53;;;;;;;4.80;2.40;;;;;;;;;;10211253;28;20809;-89
2021/11/08 11:06:54;;;;;;;8.05;2.13;;;;;;;;;;10209555;28;20435;-87
2021/11/08 11:12:21;;;;;;;3.75;2.10;;;;;;;;;;10214125;28;20038;-91
2021/11/08 11:17:33;;;;;;;3.87;2.10;;;;;;;;;;10213538;28;20030;-86
2021/11/08 11:22:36;;;;;;;4.00;2.38;;;;;;;;;;10219681;28;20469;-87
2021/11/08 11:27:48;;;;;;;12.82;3.13;;;;;;;;;;10226700;28;20397;-88
2021/11/08 11:33:19;;;;;;;2.90;2.00;;;;;;;;;;10259308;28;20565;-88
2021/11/08 11:38:30;;;;;;;2.83;2.30;;;;;;;;;;10219911;28;20049;-91
2021/11/08 11:43:32;;;;;;;7.53;2.25;;;;;;;;;;10226332;28;20049;-90
2021/11/08 11:48:34;;;;;;;5.38;2.40;;;;;;;;;;10212595;28;20397;-86
2021/11/08 11:53:35;;;;;;;5.15;2.22;;;;;;;;;;10210840;28;20413;-89
2021/11/08 11:58:37;;;;;;;6.10;2.10;;;;;;;;;;10224085;28;20049;-88
2021/11/08 12:03:38;;;;;;;2.85;2.00;;;;;;;;;;10220195;28;20062;-87
2021/11/08 12:08:40;;;;;;;4.25;2.20;;;;;;;;;;10209800;28;20594;-87
2021/11/08 12:13:53;;;;;;;3.13;2.20;;;;;;;;;;10214133;28;20125;-89
2021/11/08 12:18:54;;;;;;;4.47;2.15;;;;;;;;;;10214812;28;20050;-87
2021/11/08 12:23:56;;;;;;;5.47;2.35;;;;;;;;;;10218367;28;20094;-89
2021/11/08 12:29:13;;;;;;;6.18;1.98;;;;;;;;;;10255819;23;20065;-80
2021/11/08 12:34:20;;;;;;;9.90;3.45;;;;;;;;;;10264534;28;20288;-81
2021/11/08 12:39:21;;;;;;;7.07;3.28;;;;;;;;;;10270004;28;20039;-80
2021/11/08 12:44:23;;;;;;;6.97;2.80;;;;;;;;;;10279923;28;20038;-80
2021/11/08 12:49:51;;;;;;;11.13;3.30;;;;;;;;;;10256555;28;21335;-81
2021/11/08 12:55:01;;;;;;;7.97;2.85;;;;;;;;;;10260478;28;20459;-81
2021/11/08 13:00:17;;;;;;;11.55;2.80;;;;;;;;;;10270456;28;20852;-80
2021/11/08 13:05:26;;;;;;;4.03;2.85;;;;;;;;;;10285568;28;20022;-81
2021/11/08 13:10:36;;;;;;;5.30;2.72;;;;;;;;;;10263838;28;20161;-81
2021/11/08 13:15:39;;;;;;;11.85;2.92;;;;;;;;;;10260994;28;20460;-80
2021/11/08 13:20:45;;;;;;;7.95;2.60;;;;;;;;;;10279176;28;20060;-79
2021/11/08 13:25:49;;;;;;;7.25;2.95;;;;;;;;;;10271306;28;20030;-81
2021/11/08 13:30:54;;;;;;;4.25;2.40;;;;;;;;;;10273549;28;20165;-81
2021/11/08 13:35:55;;;;;;;6.68;3.10;;;;;;;;;;10280150;28;20148;-80
2021/11/08 13:41:15;;;;;;;9.10;2.70;;;;;;;;;;10283863;28;20787;-81
2021/11/08 13:46:25;;;;;;;7.25;2.33;;;;;;;;;;10271169;28;20034;-80
2021/11/08 13:51:28;;;;;;;5.00;2.80;;;;;;;;;;10260833;28;20595;-81
2021/11/08 13:56:39;;;;;;;6.43;2.60;;;;;;;;;;10288028;28;20385;-80
2021/11/08 14:01:45;;;;;;;5.70;2.45;;;;;;;;;;10275402;28;20022;-80
2021/11/08 14:06:50;;;;;;;5.05;2.08;;;;;;;;;;10320235;28;20033;-80
2021/11/08 14:11:52;;;;;;;10.65;3.13;;;;;;;;;;10359208;28;20475;-82
2021/11/08 14:16:56;;;;;;;5.93;2.50;;;;;;;;;;10333625;28;20102;-79
2021/11/08 14:21:56;;;;;;;6.60;2.63;;;;;;;;;;10349030;28;20049;-83
2021/11/08 14:26:57;;;;;;;9.75;2.60;;;;;;;;;;10334921;28;20057;-80
2021/11/08 14:32:00;;;;;;;12.35;2.72;;;;;;;;;;10334761;28;20125;-80
2021/11/08 14:37:11;;;;;;;8.02;2.47;;;;;;;;;;10296983;28;20044;-81
2021/11/08 14:42:14;;;;;;;17.10;2.90;;;;;;;;;;10258983;28;20037;-82
2021/11/08 14:47:26;;;;;;;13.25;2.40;;;;;;;;;;10254673;28;20512;-82
2021/11/08 14:52:33;;;;;;;7.65;2.22;;;;;;;;;;10253686;28;20053;-81
2021/11/08 14:57:36;;;;;;;4.07;1.77;;;;;;;;;;10276563;28;20476;-82
2021/11/08 15:02:37;;;;;;;2.13;1.38;;;;;;;;;;10271821;28;20038;-82
2021/11/08 15:07:40;;;;;;;4.50;1.83;;;;;;;;;;10275732;28;20037;-82
2021/11/08 15:12:42;;;;;;;2.60;1.67;;;;;;;;;;10277601;28;20558;-86
2021/11/08 15:17:48;;;;;;;6.40;1.90;;;;;;;;;;10275322;28;20465;-82
2021/11/08 15:23:08;;;;;;;4.40;1.95;;;;;;;;;;10255519;28;20190;-81
2021/11/08 15:28:14;;;;;;;20.92;2.50;;;;;;;;;;10272581;28;20061;-83
2021/11/08 15:33:26;;;;;;;4.60;1.80;;;;;;;;;;10291221;28;20526;-81
2021/11/08 15:38:36;;;;;;;4.63;1.65;;;;;;;;;;10283813;28;20069;-84
2021/11/08 15:43:38;;;;;;;5.75;1.98;;;;;;;;;;10245203;28;20561;-82
2021/11/08 15:48:40;;;;;;;6.43;2.08;;;;;;;;;;10284087;28;20053;-83
2021/11/08 15:53:41;;;;;;;4.15;1.70;;;;;;;;;;10282693;28;20891;-84
2021/11/08 15:58:42;;;;;;;6.20;1.85;;;;;;;;;;10276997;28;20110;-83
2021/11/08 16:03:43;;;;;;;4.40;1.80;;;;;;;;;;10275587;28;20042;-84
2021/11/08 16:08:44;;;;;;;2.90;1.70;;;;;;;;;;10270370;28;20522;-83
2021/11/08 16:13:44;;;;;;;7.10;1.77;;;;;;;;;;10255909;28;20542;-83
2021/11/08 16:18:47;;;;;;;3.42;1.80;;;;;;;;;;10254764;28;20038;-83
2021/11/08 16:23:50;;;;;;;5.07;1.63;;;;;;;;;;10250155;28;20042;-82
2021/11/08 16:28:50;;;;;;;3.28;1.90;;;;;;;;;;10253986;28;20558;-83
2021/11/08 16:33:55;;;;;;;4.55;2.03;;;;;;;;;;10266264;28;20049;-83
2021/11/08 16:38:56;;;;;;;4.57;1.80;;;;;;;;;;10268781;28;20038;-81
2021/11/08 16:43:57;;;;;;;4.35;1.58;;;;;;;;;;10277319;28;20030;-80
2021/11/08 16:48:57;;;;;;;6.22;2.45;;;;;;;;;;10330605;28;20366;-81
2021/11/08 16:54:01;;;;;;;3.38;1.85;;;;;;;;;;10342736;28;20037;-81
2021/11/08 16:59:03;;;;;;;5.22;1.98;;;;;;;;;;10290598;28;20528;-82
2021/11/08 17:04:03;;;;;;;3.35;1.88;;;;;;;;;;10268069;28;20041;-82
2021/11/08 17:09:19;;;;;;;9.27;1.90;;;;;;;;;;10251030;28;20502;-81
2021/11/08 17:14:20;;;;;;;3.33;1.83;;;;;;;;;;10252680;28;20038;-82
2021/11/08 17:19:22;;;;;;;3.17;1.92;;;;;;;;;;10261119;28;20027;-80
2021/11/08 17:24:22;;;;;;;4.10;2.45;;;;;;;;;;10271141;28;20043;-81
2021/11/08 17:29:23;;;;;;;3.95;2.13;;;;;;;;;;10276491;28;20046;-80
2021/11/08 17:34:24;;;;;;;8.63;1.80;;;;;;;;;;10297317;28;20034;-83
2021/11/08 17:39:25;;;;;;;4.93;1.98;;;;;;;;;;10345468;28;20030;-82
2021/11/08 17:44:25;;;;;;;19.20;2.17;;;;;;;;;;10356101;28;20069;-82
2021/11/08 17:49:26;;;;;;;5.57;1.90;;;;;;;;;;10355860;28;20027;-81
2021/11/08 17:54:26;;;;;;;8.27;1.88;;;;;;;;;;10348187;28;20791;-79
2021/11/08 17:59:26;;;;;;;8.07;2.30;;;;;;;;;;10338898;28;20068;-80
2021/11/08 18:04:27;;;;;;;11.60;2.10;;;;;;;;;;10348390;28;20372;-81
2021/11/08 18:09:28;;;;;;;6.28;1.95;;;;;;;;;;10358128;28;20026;-81
2021/11/08 18:14:35;;;;;;;5.70;2.30;;;;;;;;;;10349829;28;20049;-79
2021/11/08 18:19:38;;;;;;;18.42;2.00;;;;;;;;;;10339931;28;20104;-80
2021/11/08 18:24:42;;;;;;;4.88;2.33;;;;;;;;;;10341395;28;20068;-79
2021/11/08 18:29:45;;;;;;;6.43;2.15;;;;;;;;;;10343559;28;20058;-81
2021/11/08 18:34:45;;;;;;;8.00;2.30;;;;;;;;;;10336360;28;20476;-79
2021/11/08 18:39:46;;;;;;;16.63;2.70;;;;;;;;;;10332429;28;20037;-80
2021/11/08 18:44:48;;;;;;;14.57;2.70;;;;;;;;;;10328068;28;20980;-80
2021/11/08 18:49:49;;;;;;;6.93;2.42;;;;;;;;;;10320211;28;20066;-80
2021/11/08 18:54:49;;;;;;;3.70;2.58;;;;;;;;;;10334307;28;20041;-81
2021/11/08 18:59:53;;;;;;;7.57;2.83;;;;;;;;;;10343901;28;20030;-79
2021/11/08 19:04:58;;;;;;;6.32;2.50;;;;;;;;;;10329358;28;20499;-80
2021/11/08 19:09:59;;;;;;;6.53;2.30;;;;;;;;;;10334493;28;20564;-80
2021/11/08 19:14:59;;;;;;;7.90;2.57;;;;;;;;;;10331754;28;20165;-80
2021/11/08 19:20:00;;;;;;;10.30;2.40;;;;;;;;;;10342288;28;20445;-79
2021/11/08 19:25:02;;;;;;;4.73;2.10;;;;;;;;;;10323012;28;20031;-80
2021/11/08 19:30:09;;;;;;;5.35;2.15;;;;;;;;;;10325894;28;20483;-80
2021/11/08 19:40:14;;;;;;;14.15;3.60;;;;;;;;;;10336276;28;20125;-79
2021/11/08 19:45:15;;;;;;;14.73;2.97;;;;;;;;;;10340478;28;20123;-79
2021/11/08 19:50:16;;;;;;;13.60;3.10;;;;;;;;;;10346724;28;20030;-80
2021/11/08 19:55:17;;;;;;;17.98;2.78;;;;;;;;;;10329401;28;20030;-79
2021/11/08 20:00:21;;;;;;;9.75;3.10;;;;;;;;;;10323313;28;20461;-79
2021/11/08 20:05:21;;;;;;;14.02;2.70;;;;;;;;;;10306043;28;20434;-79
2021/11/08 20:10:23;;;;;;;16.35;2.85;;;;;;;;;;10310774;28;20153;-79
2021/11/08 20:15:24;;;;;;;7.57;2.72;;;;;;;;;;10348027;28;20038;-80
2021/11/08 20:20:25;;;;;;;6.45;2.38;;;;;;;;;;10332464;28;20026;-80
2021/11/08 20:25:25;;;;;;;5.65;2.30;;;;;;;;;;10331762;28;20038;-80
2021/11/08 20:30:25;;;;;;;17.27;3.00;;;;;;;;;;10332316;28;20054;-80
2021/11/08 21:16:50;;;;;;;5.50;2.40;;;;;;;;;;10335227;28;20034;-80
2021/11/08 21:21:51;;;;;;;17.02;2.63;;;;;;;;;;10337379;28;20026;-80
2021/11/08 21:26:54;;;;;;;10.95;2.67;;;;;;;;;;10325284;28;20042;-81
2021/11/08 21:42:18;;;;;;;7.80;2.20;;;;;;;;;;10334302;28;20034;-80
2021/11/08 21:47:22;;;;;;;7.88;2.10;;;;;;;;;;10335113;28;20706;-80
2021/11/08 21:52:24;;;;;;;4.28;1.90;;;;;;;;;;10336609;28;20090;-81
2021/11/08 21:57:24;;;;;;;4.43;2.15;;;;;;;;;;10335330;28;20092;-80
2021/11/08 22:02:26;;;;;;;4.68;2.17;;;;;;;;;;10332418;28;20518;-81
2021/11/08 22:07:26;;;;;;;8.32;2.42;;;;;;;;;;10335684;28;20027;-80
2021/11/08 22:12:27;;;;;;;8.43;2.53;;;;;;;;;;10334461;28;20419;-83
2021/11/08 22:17:27;;;;;;;5.55;2.05;;;;;;;;;;10332464;28;20432;-81
2021/11/08 22:22:28;;;;;;;7.10;2.00;;;;;;;;;;10350135;28;20053;-82
2021/11/08 22:27:29;;;;;;;5.20;2.10;;;;;;;;;;10346824;28;20050;-81
2021/11/08 22:32:29;;;;;;;4.45;1.60;;;;;;;;;;10330732;28;20097;-81
2021/11/08 22:37:30;;;;;;;2.00;1.53;;;;;;;;;;10343468;28;20499;-81
2021/11/08 22:42:30;;;;;;;4.85;2.55;;;;;;;;;;10329053;28;20456;-81
2021/11/08 22:47:30;;;;;;;2.90;2.13;;;;;;;;;;10346045;28;20028;-81
2021/11/08 22:52:31;;;;;;;4.57;2.33;;;;;;;;;;10355066;28;20443;-80
2021/11/08 22:57:31;;;;;;;6.00;2.00;;;;;;;;;;10354490;28;20033;-81
2021/11/08 23:02:33;;;;;;;6.53;2.00;;;;;;;;;;10348059;28;20492;-82
2021/11/08 23:07:33;;;;;;;8.02;1.98;;;;;;;;;;10333703;28;20034;-80
2021/11/08 23:12:35;;;;;;;4.83;1.90;;;;;;;;;;10343715;28;20033;-82
2021/11/08 23:17:39;;;;;;;3.67;2.03;;;;;;;;;;10329732;28;20487;-81
2021/11/08 23:22:40;;;;;;;4.55;2.25;;;;;;;;;;10333314;28;20026;-81
2021/11/08 23:27:41;;;;;;;3.78;1.70;;;;;;;;;;10327164;28;20042;-81
2021/11/08 23:32:42;;;;;;;4.30;2.15;;;;;;;;;;10334783;28;20457;-78
2021/11/08 23:37:43;;;;;;;6.65;2.10;;;;;;;;;;10339834;28;20030;-80
2021/11/08 23:42:44;;;;;;;4.10;2.20;;;;;;;;;;10342830;28;20034;-80
2021/11/08 23:47:45;;;;;;;4.75;2.30;;;;;;;;;;10334156;28;20137;-78
2021/11/08 23:52:45;;;;;;;9.50;2.70;;;;;;;;;;10334197;28;20030;-79
2021/11/08 23:57:48;;;;;;;8.38;2.85;;;;;;;;;;10332469;28;20030;-79
